WEATHER DATA

TODAY
Time Temp. Dewp. Hum. Wind dir Wind speed Wind gust Bar. 1h Prec. 24h Prec.
00:08 16.1 10.2 68 206 0.8 2.2 1018.6 0.0000 0.0000
00:18 16.1 10.2 68 206 0.8 2.2 1018.6 0.0000 0.0000
00:28 16 10.3 69 206 0.8 2.2 1018.7 0.0000 0.0000
00:37 15.8 10.3 70 206 0.8 2.2 1018.6 0.0000 0.0000
00:49 15.5 10.1 70 206 0.8 2.2 1018.6 0.0000 0.0000
00:58 15.2 9.8 70 206 0.8 2.2 1018.7 0.0000 0.0000
01:08 14.9 9.7 71 206 0.8 2.2 1018.8 0.0000 0.0000
01:19 14.6 10 74 206 0.8 2.2 1018.8 0.0000 0.0000
01:29 14.4 10 75 206 0.8 2.2 1018.7 0.0000 0.0000
01:38 14.2 9.8 75 206 0.8 2.2 1018.6 0.0000 0.0000
01:49 14.1 9.7 75 206 0.8 2.2 1018.6 0.0000 0.0000
01:59 14 9.6 75 206 0.8 2.2 1018.5 0.0000 0.0000
02:09 14 9.6 75 206 0.8 2.2 1018.5 0.0000 0.0000
02:19 14.1 9.5 74 206 0.8 2.2 1018.5 0.0000 0.0000
02:29 14.1 9.3 73 206 0.8 2.2 1018.4 0.0000 0.0000
02:39 14.2 9.4 73 206 0.8 2.2 1018.2 0.0000 0.0000
02:49 14.3 9.5 73 206 0.8 2.2 1018.2 0.0000 0.0000
02:59 14.4 9.6 73 206 0.8 2.2 1018.1 0.0000 0.0000
03:09 14.5 9.5 72 206 0.8 2.2 1018 0.0000 0.0000
03:19 14.6 9.4 71 206 0.8 2.2 1017.8 0.0000 0.0000
03:30 14.7 9.5 71 206 0.8 2.2 1017.8 0.0000 0.0000
03:40 14.9 9.7 71 206 0.8 2.2 1017.7 0.0000 0.0000
03:49 14.9 9.9 72 206 0.8 2.2 1017.8 0.0000 0.0000
03:59 14.9 10.1 73 206 0.8 2.2 1017.8 0.0000 0.0000
04:10 14.9 10.1 73 206 0.8 2.2 1017.7 0.0000 0.0000
04:20 14.9 9.9 72 206 0.8 2.2 1017.7 0.0000 0.0000
04:29 14.9 9.9 72 206 0.8 2.2 1017.7 0.0000 0.0000
04:40 14.9 9.9 72 206 0.8 2.2 1017.6 0.0000 0.0000
04:49 14.9 9.9 72 206 0.8 2.2 1017.7 0.0000 0.0000
05:00 15 9.8 71 206 0.8 2.2 1017.6 0.0000 0.0000
05:10 15.1 9.9 71 206 0.8 2.2 1017.6 0.0000 0.0000
05:20 15.2 9.8 70 206 0.8 2.2 1017.6 0.0000 0.0000
05:29 15.2 9.8 70 206 0.8 2.2 1017.6 0.0000 0.0000
05:40 15.2 10 71 206 0.8 2.2 1017.6 0.0000 0.0000
05:51 15.1 9.9 71 206 0.8 2.2 1017.6 0.0000 0.0000
06:00 15.1 10.1 72 206 0.8 2.2 1017.6 0.0000 0.0000
06:09 15 10.2 73 206 0.8 2.2 1017.5 0.0000 0.0000
06:20 14.9 10.3 74 206 0.8 2.2 1017.5 0.0000 0.0000
06:31 14.8 10.2 74 206 0.8 2.2 1017.5 0.0000 0.0000
06:41 14.8 10.2 74 206 0.8 2.2 1017.6 0.0000 0.0000
06:51 14.9 10.3 74 206 0.8 2.2 1017.5 0.0000 0.0000
07:01 14.9 10.5 75 206 0.8 2.2 1017.6 0.0000 0.0000
07:11 14.9 10.5 75 206 0.8 2.2 1017.5 0.0000 0.0000
07:21 15 10.6 75 206 0.8 2.2 1017.5 0.0000 0.0000
07:31 15 10.8 76 206 0.8 2.2 1017.5 0.0000 0.0000
07:41 15 10.8 76 206 0.8 2.2 1017.5 0.0000 0.0000
07:50 15 11 77 206 0.8 2.2 1017.4 0.0000 0.0000
08:01 14.9 11.1 78 206 0.8 2.2 1017.4 0.0000 0.0000
08:20 14.9 11.7 81 206 0.8 2.2 1017.5 0.0000 0.0000
08:31 14.9 11.9 82 206 0.8 2.2 1017.7 0.0000 0.0000
08:41 15 12 82 206 0.8 2.2 1017.8 0.0000 0.0000
08:52 15.1 12.1 82 206 0.8 2.2 1018 0.0000 0.0000
09:02 15.2 12.3 83 206 0.8 2.2 1018.1 0.1034 0.1000
09:11 15.3 12.4 83 206 0.8 2.2 1018.1 0.1034 0.1000
09:22 15.5 12.8 84 206 0.8 2.2 1018.2 0.2068 0.2000
09:32 15.8 13.1 84 206 0.8 2.2 1018.1 0.2068 0.2000
09:34 15.8 13.3 85 206 0.8 2.2 1018.1 0.3103 0.3000
09:43 16.2 13.7 85 206 0.8 2.2 1018 0.3103 0.3000
09:54 16.6 14.1 85 206 0.8 2.2 1018 0.2068 0.3000
10:04 16.9 14.4 85 206 0.8 2.2 1017.8 0.2068 0.3000
10:14 17.2 14.5 84 206 0.8 2.2 1017.8 0.1034 0.3000
10:24 17.5 14.6 83 206 0.8 2.2 1017.7 0.0000 0.3000
10:34 18.2 15.1 82 206 0.8 2.2 1017.7 0.0000 0.3000
10:44 18.6 15.3 81 206 0.8 2.2 1017.8 0.0000 0.3000
10:54 18.9 15.2 79 206 0.8 2.2 1017.7 0.0000 0.3000
11:03 19 15.1 78 206 0.8 2.2 1017.8 0.0000 0.3000
11:14 19.5 15.4 77 206 0.8 2.2 1017.8 0.0000 0.3000
11:24 19.7 15.4 76 206 0.8 2.2 1017.7 0.0000 0.3000
11:32 19.9 15.5 76 206 0.8 2.2 1017.8 0.0000 0.3000
11:44 20.3 15.7 75 206 0.8 2.2 1017.7 0.0000 0.3000
11:54 20.3 15.7 75 206 0.8 2.2 1017.7 0.0000 0.3000
12:05 20.5 15.9 75 206 0.8 2.2 1017.5 0.0000 0.3000
12:13 21.1 16.3 74 206 0.8 2.2 1017.5 0.0000 0.3000
12:24 21.6 16.6 73 206 0.8 2.2 1017.4 0.0000 0.3000
12:34 21.7 16.4 72 206 0.8 2.2 1017.4 0.0000 0.3000
12:45 21.8 16.1 70 206 0.8 2.2 1017.3 0.0000 0.3000
12:53 21.8 16.3 71 206 0.8 2.2 1017.3 0.0000 0.3000
13:01 22 16.3 70 206 0.8 2.2 1017.2 0.0000 0.3000
13:14 22.4 16.7 70 206 0.8 2.2 1017.2 0.0000 0.3000
13:25 22.7 16.5 68 206 0.8 2.2 1017.2 0.0000 0.3000
13:34 22.7 16.5 68 206 0.8 2.2 1017.2 0.0000 0.3000
13:42 22.7 16.5 68 206 0.8 2.2 1017.1 0.0000 0.3000
13:52 23 16.8 68 206 0.8 2.2 1017 0.0000 0.3000
14:04 23.2 17 68 206 0.8 2.2 1016.7 0.0000 0.3000
14:15 23.6 16.9 66 206 0.8 2.2 1016.7 0.0000 0.3000
14:24 23.6 16.1 63 206 0.8 2.2 1016.5 0.0000 0.3000
14:33 23.6 16.6 65 206 0.8 2.2 1016.5 0.0000 0.3000
14:41 23.7 16.5 64 206 0.8 2.2 1016.4 0.0000 0.3000
14:49 23.9 16.7 64 206 0.8 2.2 1016.3 0.0000 0.3000
15:05 24.2 16.5 62 206 0.8 2.2 1016.1 0.0000 0.3000
15:15 24 16.5 63 206 0.8 2.2 1016.1 0.0000 0.3000
15:24 23.9 16.2 62 206 0.8 2.2 1016.1 0.0000 0.3000
15:32 23.7 16.2 63 206 0.8 2.2 1016.2 0.0000 0.3000
15:39 23.4 16 63 206 0.8 2.2 1016.2 0.0000 0.3000

DAY STATISTIC

2018-05-24
TEMPERATURE
AVERAGE
17.4
HIGH
24.2
15:05
LOW
14.0
01:59
PRESSURE
AVERAGE
1017.7
HIGH
1018.8
01:08
LOW
1016.1
15:05
DEWPOINT
AVERAGE
12.5
HIGH
17.0
14:04
LOW
9.3
02:29
HUMIDITY
AVERAGE
74
HIGH
85
09:34
LOW
62
15:05
WIND SPEED
AVERAGE
0.8
HIGH
0.8
00:08
WIND GUST
AVERAGE
2.2
HIGH
2.2
00:08
WIND DIRECTION
PREVAILING
SW
100%
N
0.0
NE
0.0
E
0.0
SE
0.0
S
0.0
SW
100.0
W
0.0
NW
0.0
PRECIPITATION
RAIN HOUR
0.3
RAIN DAY
0.3
TEMPERATURE (°C)
LOW
14.0
HIGH
24.2
AVERAGE
17.4
PRESSURE (hpa)
LOW
1016.1
HIGH
1018.8
AVERAGE
1017.7
DEVICE